sensor_id;sensor_type;location;lat;lon;timestamp;temperature;humidity
20483;DHT22;10400;53.198;6.592;2022-07-29T00:01:16;15.60;99.90
20483;DHT22;10400;53.198;6.592;2022-07-29T00:03:42;15.70;99.90
20483;DHT22;10400;53.198;6.592;2022-07-29T00:06:07;15.70;99.90
20483;DHT22;10400;53.198;6.592;2022-07-29T00:08:33;15.70;99.90
20483;DHT22;10400;53.198;6.592;2022-07-29T00:10:59;15.70;99.90
20483;DHT22;10400;53.198;6.592;2022-07-29T00:13:24;15.70;99.90
20483;DHT22;10400;53.198;6.592;2022-07-29T00:15:50;15.70;99.90
20483;DHT22;10400;53.198;6.592;2022-07-29T00:18:16;15.70;99.90
20483;DHT22;10400;53.198;6.592;2022-07-29T00:20:41;15.70;99.90
20483;DHT22;10400;53.198;6.592;2022-07-29T00:23:07;15.70;99.90
20483;DHT22;10400;53.198;6.592;2022-07-29T00:25:32;15.70;99.90
20483;DHT22;10400;53.198;6.592;2022-07-29T00:27:58;15.70;99.90
20483;DHT22;10400;53.198;6.592;2022-07-29T00:30:24;15.70;99.90
20483;DHT22;10400;53.198;6.592;2022-07-29T00:32:49;15.70;99.90
20483;DHT22;10400;53.198;6.592;2022-07-29T00:35:15;15.80;99.90
20483;DHT22;10400;53.198;6.592;2022-07-29T00:37:59;15.80;99.90
20483;DHT22;10400;53.198;6.592;2022-07-29T00:40:24;15.80;99.90
20483;DHT22;10400;53.198;6.592;2022-07-29T00:42:51;15.80;99.90
20483;DHT22;10400;53.198;6.592;2022-07-29T00:45:17;15.80;99.90
20483;DHT22;10400;53.198;6.592;2022-07-29T00:47:43;15.80;99.90
20483;DHT22;10400;53.198;6.592;2022-07-29T00:50:10;15.80;99.90
20483;DHT22;10400;53.198;6.592;2022-07-29T00:52:38;15.70;99.90
20483;DHT22;10400;53.198;6.592;2022-07-29T00:55:06;15.70;99.90
20483;DHT22;10400;53.198;6.592;2022-07-29T00:57:32;15.80;99.90
20483;DHT22;10400;53.198;6.592;2022-07-29T00:59:58;15.80;99.90
20483;DHT22;10400;53.198;6.592;2022-07-29T01:02:23;15.80;99.90
20483;DHT22;10400;53.198;6.592;2022-07-29T01:04:49;15.90;99.90
20483;DHT22;10400;53.198;6.592;2022-07-29T01:07:15;15.90;99.90
20483;DHT22;10400;53.198;6.592;2022-07-29T01:09:42;15.80;99.90
20483;DHT22;10400;53.198;6.592;2022-07-29T01:12:09;15.80;99.90
20483;DHT22;10400;53.198;6.592;2022-07-29T01:14:36;15.80;99.90
20483;DHT22;10400;53.198;6.592;2022-07-29T01:17:10;15.80;99.90
20483;DHT22;10400;53.198;6.592;2022-07-29T01:31:07;15.80;99.90
20483;DHT22;10400;53.198;6.592;2022-07-29T01:33:41;15.70;99.90
20483;DHT22;10400;53.198;6.592;2022-07-29T01:45:12;15.80;99.90
20483;DHT22;10400;53.198;6.592;2022-07-29T01:48:18;15.80;99.90
20483;DHT22;10400;53.198;6.592;2022-07-29T01:50:55;15.80;99.90
20483;DHT22;10400;53.198;6.592;2022-07-29T01:53:38;15.80;99.90
20483;DHT22;10400;53.198;6.592;2022-07-29T01:56:09;15.80;99.90
20483;DHT22;10400;53.198;6.592;2022-07-29T01:58:38;15.70;99.90
20483;DHT22;10400;53.198;6.592;2022-07-29T02:01:05;15.70;99.90
20483;DHT22;10400;53.198;6.592;2022-07-29T02:03:32;15.70;99.90
20483;DHT22;10400;53.198;6.592;2022-07-29T02:06:00;15.70;99.90
20483;DHT22;10400;53.198;6.592;2022-07-29T02:08:27;15.80;99.90
20483;DHT22;10400;53.198;6.592;2022-07-29T02:10:55;15.80;99.90
20483;DHT22;10400;53.198;6.592;2022-07-29T02:13:23;15.70;99.90
20483;DHT22;10400;53.198;6.592;2022-07-29T02:15:50;15.70;99.90
20483;DHT22;10400;53.198;6.592;2022-07-29T02:18:18;15.70;99.90
20483;DHT22;10400;53.198;6.592;2022-07-29T02:20:48;15.80;99.90
20483;DHT22;10400;53.198;6.592;2022-07-29T02:23:17;15.70;99.90
20483;DHT22;10400;53.198;6.592;2022-07-29T02:25:45;15.70;99.90
20483;DHT22;10400;53.198;6.592;2022-07-29T02:28:13;15.70;99.90
20483;DHT22;10400;53.198;6.592;2022-07-29T02:30:41;15.70;99.90
20483;DHT22;10400;53.198;6.592;2022-07-29T02:33:10;15.70;99.90
20483;DHT22;10400;53.198;6.592;2022-07-29T02:35:38;15.70;99.90
20483;DHT22;10400;53.198;6.592;2022-07-29T02:38:06;15.80;99.90
20483;DHT22;10400;53.198;6.592;2022-07-29T02:40:52;15.70;99.90
20483;DHT22;10400;53.198;6.592;2022-07-29T02:43:19;15.70;99.90
20483;DHT22;10400;53.198;6.592;2022-07-29T02:45:47;15.70;99.90
20483;DHT22;10400;53.198;6.592;2022-07-29T02:48:16;15.70;99.90
20483;DHT22;10400;53.198;6.592;2022-07-29T02:51:01;15.80;99.90
20483;DHT22;10400;53.198;6.592;2022-07-29T02:53:33;15.80;99.90
20483;DHT22;10400;53.198;6.592;2022-07-29T02:56:05;15.70;99.90
20483;DHT22;10400;53.198;6.592;2022-07-29T02:58:46;15.70;99.90
20483;DHT22;10400;53.198;6.592;2022-07-29T03:01:15;15.70;99.90
20483;DHT22;10400;53.198;6.592;2022-07-29T03:03:43;15.60;99.90
20483;DHT22;10400;53.198;6.592;2022-07-29T03:06:12;15.60;99.90
20483;DHT22;10400;53.198;6.592;2022-07-29T03:08:39;15.60;99.90
20483;DHT22;10400;53.198;6.592;2022-07-29T03:11:05;15.60;99.90
20483;DHT22;10400;53.198;6.592;2022-07-29T03:13:32;15.60;99.90
20483;DHT22;10400;53.198;6.592;2022-07-29T03:15:59;15.60;99.90
20483;DHT22;10400;53.198;6.592;2022-07-29T03:18:25;15.60;99.90
20483;DHT22;10400;53.198;6.592;2022-07-29T03:20:51;15.70;99.90
20483;DHT22;10400;53.198;6.592;2022-07-29T03:23:21;15.70;99.90
20483;DHT22;10400;53.198;6.592;2022-07-29T03:25:49;15.60;99.90
20483;DHT22;10400;53.198;6.592;2022-07-29T03:28:14;15.60;99.90
20483;DHT22;10400;53.198;6.592;2022-07-29T03:30:40;15.60;99.90
20483;DHT22;10400;53.198;6.592;2022-07-29T03:33:06;15.70;99.90
20483;DHT22;10400;53.198;6.592;2022-07-29T03:35:31;15.60;99.90
20483;DHT22;10400;53.198;6.592;2022-07-29T03:37:58;15.60;99.90
20483;DHT22;10400;53.198;6.592;2022-07-29T03:40:40;15.60;99.90
20483;DHT22;10400;53.198;6.592;2022-07-29T03:43:08;15.60;99.90
20483;DHT22;10400;53.198;6.592;2022-07-29T03:45:35;15.60;99.90
20483;DHT22;10400;53.198;6.592;2022-07-29T03:48:07;15.60;99.90
20483;DHT22;10400;53.198;6.592;2022-07-29T03:50:33;15.60;99.90
20483;DHT22;10400;53.198;6.592;2022-07-29T03:53:01;15.60;99.90
20483;DHT22;10400;53.198;6.592;2022-07-29T03:55:29;15.60;99.90
20483;DHT22;10400;53.198;6.592;2022-07-29T03:57:57;15.60;99.90
20483;DHT22;10400;53.198;6.592;2022-07-29T04:00:25;15.50;99.90
20483;DHT22;10400;53.198;6.592;2022-07-29T04:02:52;15.50;99.90
20483;DHT22;10400;53.198;6.592;2022-07-29T04:05:18;15.60;99.90
20483;DHT22;10400;53.198;6.592;2022-07-29T04:07:44;15.60;99.90
20483;DHT22;10400;53.198;6.592;2022-07-29T04:10:10;15.60;99.90
20483;DHT22;10400;53.198;6.592;2022-07-29T04:12:36;15.60;99.90
20483;DHT22;10400;53.198;6.592;2022-07-29T04:15:03;15.60;99.90
20483;DHT22;10400;53.198;6.592;2022-07-29T04:17:29;15.50;99.90
20483;DHT22;10400;53.198;6.592;2022-07-29T04:19:54;15.60;99.90
20483;DHT22;10400;53.198;6.592;2022-07-29T04:22:20;15.60;99.90
20483;DHT22;10400;53.198;6.592;2022-07-29T04:24:46;15.60;99.90
20483;DHT22;10400;53.198;6.592;2022-07-29T04:27:11;15.60;99.90
20483;DHT22;10400;53.198;6.592;2022-07-29T04:29:37;15.70;99.90
20483;DHT22;10400;53.198;6.592;2022-07-29T04:32:03;15.70;99.90
20483;DHT22;10400;53.198;6.592;2022-07-29T04:34:28;15.70;99.90
20483;DHT22;10400;53.198;6.592;2022-07-29T04:36:55;15.70;99.90
20483;DHT22;10400;53.198;6.592;2022-07-29T04:39:20;15.70;99.90
20483;DHT22;10400;53.198;6.592;2022-07-29T04:41:46;15.80;99.90
20483;DHT22;10400;53.198;6.592;2022-07-29T04:44:12;15.80;99.90
20483;DHT22;10400;53.198;6.592;2022-07-29T04:46:38;15.80;99.90
20483;DHT22;10400;53.198;6.592;2022-07-29T04:49:04;15.80;99.90
20483;DHT22;10400;53.198;6.592;2022-07-29T04:51:30;15.90;99.90
20483;DHT22;10400;53.198;6.592;2022-07-29T04:53:56;15.90;99.90
20483;DHT22;10400;53.198;6.592;2022-07-29T04:56:22;15.80;99.90
20483;DHT22;10400;53.198;6.592;2022-07-29T04:58:47;15.90;99.90
20483;DHT22;10400;53.198;6.592;2022-07-29T05:01:13;16.00;99.90
20483;DHT22;10400;53.198;6.592;2022-07-29T05:03:40;15.80;99.90
20483;DHT22;10400;53.198;6.592;2022-07-29T05:06:05;15.80;99.90
20483;DHT22;10400;53.198;6.592;2022-07-29T05:08:31;15.90;99.90
20483;DHT22;10400;53.198;6.592;2022-07-29T05:10:57;15.90;99.90
20483;DHT22;10400;53.198;6.592;2022-07-29T05:13:22;16.00;99.90
20483;DHT22;10400;53.198;6.592;2022-07-29T05:15:49;16.00;99.90
20483;DHT22;10400;53.198;6.592;2022-07-29T05:18:15;15.90;99.90
20483;DHT22;10400;53.198;6.592;2022-07-29T05:20:41;15.90;99.90
20483;DHT22;10400;53.198;6.592;2022-07-29T05:23:07;16.00;99.90
20483;DHT22;10400;53.198;6.592;2022-07-29T05:25:32;16.00;99.90
20483;DHT22;10400;53.198;6.592;2022-07-29T05:27:58;16.00;99.90
20483;DHT22;10400;53.198;6.592;2022-07-29T05:30:24;16.10;99.90
20483;DHT22;10400;53.198;6.592;2022-07-29T05:32:50;16.10;99.90
20483;DHT22;10400;53.198;6.592;2022-07-29T05:35:16;16.10;99.90
20483;DHT22;10400;53.198;6.592;2022-07-29T05:37:42;16.10;99.90
20483;DHT22;10400;53.198;6.592;2022-07-29T05:40:08;16.20;99.90
20483;DHT22;10400;53.198;6.592;2022-07-29T05:42:33;16.30;99.90
20483;DHT22;10400;53.198;6.592;2022-07-29T05:44:59;16.30;99.90
20483;DHT22;10400;53.198;6.592;2022-07-29T05:47:25;16.40;99.90
20483;DHT22;10400;53.198;6.592;2022-07-29T05:49:51;16.40;99.90
20483;DHT22;10400;53.198;6.592;2022-07-29T05:52:17;16.50;99.90
20483;DHT22;10400;53.198;6.592;2022-07-29T05:54:43;16.50;99.90
20483;DHT22;10400;53.198;6.592;2022-07-29T05:57:09;16.60;99.90
20483;DHT22;10400;53.198;6.592;2022-07-29T05:59:40;16.60;99.90
20483;DHT22;10400;53.198;6.592;2022-07-29T06:02:05;16.60;99.90
20483;DHT22;10400;53.198;6.592;2022-07-29T06:04:32;16.60;99.90
20483;DHT22;10400;53.198;6.592;2022-07-29T06:06:58;16.70;99.90
20483;DHT22;10400;53.198;6.592;2022-07-29T06:09:24;16.70;99.90
20483;DHT22;10400;53.198;6.592;2022-07-29T06:11:49;16.80;99.90
20483;DHT22;10400;53.198;6.592;2022-07-29T06:14:15;16.70;99.90
20483;DHT22;10400;53.198;6.592;2022-07-29T06:16:41;16.70;99.90
20483;DHT22;10400;53.198;6.592;2022-07-29T06:19:06;16.80;99.90
20483;DHT22;10400;53.198;6.592;2022-07-29T06:21:32;16.80;99.90
20483;DHT22;10400;53.198;6.592;2022-07-29T06:23:59;16.80;99.90
20483;DHT22;10400;53.198;6.592;2022-07-29T06:26:24;16.90;99.90
20483;DHT22;10400;53.198;6.592;2022-07-29T06:28:50;16.90;99.90
20483;DHT22;10400;53.198;6.592;2022-07-29T06:31:16;17.00;99.90
20483;DHT22;10400;53.198;6.592;2022-07-29T06:33:41;17.10;99.90
20483;DHT22;10400;53.198;6.592;2022-07-29T06:36:07;17.20;99.90
20483;DHT22;10400;53.198;6.592;2022-07-29T06:38:33;17.30;99.90
20483;DHT22;10400;53.198;6.592;2022-07-29T06:40:59;17.30;99.90
20483;DHT22;10400;53.198;6.592;2022-07-29T06:43:32;17.40;99.90
20483;DHT22;10400;53.198;6.592;2022-07-29T06:46:04;17.40;99.90
20483;DHT22;10400;53.198;6.592;2022-07-29T06:48:30;17.50;99.90
20483;DHT22;10400;53.198;6.592;2022-07-29T06:50:56;17.60;99.90
20483;DHT22;10400;53.198;6.592;2022-07-29T06:53:22;17.60;99.90
20483;DHT22;10400;53.198;6.592;2022-07-29T06:55:48;17.60;99.90
20483;DHT22;10400;53.198;6.592;2022-07-29T06:58:13;17.70;99.90
20483;DHT22;10400;53.198;6.592;2022-07-29T07:00:41;17.80;99.90
20483;DHT22;10400;53.198;6.592;2022-07-29T07:03:07;17.90;99.90
20483;DHT22;10400;53.198;6.592;2022-07-29T07:05:33;17.90;99.90
20483;DHT22;10400;53.198;6.592;2022-07-29T07:07:58;18.00;99.90
20483;DHT22;10400;53.198;6.592;2022-07-29T07:10:24;18.00;99.90
20483;DHT22;10400;53.198;6.592;2022-07-29T07:12:50;18.20;99.90
20483;DHT22;10400;53.198;6.592;2022-07-29T07:15:16;18.20;99.90
20483;DHT22;10400;53.198;6.592;2022-07-29T07:17:41;18.10;99.90
20483;DHT22;10400;53.198;6.592;2022-07-29T07:20:07;18.20;99.90
20483;DHT22;10400;53.198;6.592;2022-07-29T07:22:33;18.20;99.90
20483;DHT22;10400;53.198;6.592;2022-07-29T07:24:59;18.20;99.90
20483;DHT22;10400;53.198;6.592;2022-07-29T07:27:24;18.20;99.90
20483;DHT22;10400;53.198;6.592;2022-07-29T07:29:50;18.20;99.90
20483;DHT22;10400;53.198;6.592;2022-07-29T07:32:15;18.20;99.90
20483;DHT22;10400;53.198;6.592;2022-07-29T07:34:44;18.40;99.90
20483;DHT22;10400;53.198;6.592;2022-07-29T07:37:10;18.40;99.90
20483;DHT22;10400;53.198;6.592;2022-07-29T07:39:36;18.40;99.90
20483;DHT22;10400;53.198;6.592;2022-07-29T07:42:01;18.40;99.90
20483;DHT22;10400;53.198;6.592;2022-07-29T07:44:27;18.60;99.90
20483;DHT22;10400;53.198;6.592;2022-07-29T07:46:52;18.60;99.90
20483;DHT22;10400;53.198;6.592;2022-07-29T07:49:18;18.70;99.90
20483;DHT22;10400;53.198;6.592;2022-07-29T07:51:44;18.60;99.90
20483;DHT22;10400;53.198;6.592;2022-07-29T07:54:10;18.70;99.90
20483;DHT22;10400;53.198;6.592;2022-07-29T07:56:36;18.70;99.90
20483;DHT22;10400;53.198;6.592;2022-07-29T07:59:01;18.80;99.90
20483;DHT22;10400;53.198;6.592;2022-07-29T08:01:27;18.90;99.90
20483;DHT22;10400;53.198;6.592;2022-07-29T08:03:53;18.90;99.90
20483;DHT22;10400;53.198;6.592;2022-07-29T08:06:18;18.90;99.90
20483;DHT22;10400;53.198;6.592;2022-07-29T08:08:44;19.00;99.90
20483;DHT22;10400;53.198;6.592;2022-07-29T08:11:09;18.80;99.90
20483;DHT22;10400;53.198;6.592;2022-07-29T08:13:36;18.80;99.90
20483;DHT22;10400;53.198;6.592;2022-07-29T08:16:03;18.90;99.90
20483;DHT22;10400;53.198;6.592;2022-07-29T08:18:37;18.90;99.90
20483;DHT22;10400;53.198;6.592;2022-07-29T08:21:04;18.90;99.90
20483;DHT22;10400;53.198;6.592;2022-07-29T08:23:29;19.00;99.90
20483;DHT22;10400;53.198;6.592;2022-07-29T08:26:10;19.10;99.90
20483;DHT22;10400;53.198;6.592;2022-07-29T08:28:41;19.10;99.90
20483;DHT22;10400;53.198;6.592;2022-07-29T08:31:10;19.30;99.90
20483;DHT22;10400;53.198;6.592;2022-07-29T08:33:35;19.50;99.90
20483;DHT22;10400;53.198;6.592;2022-07-29T08:36:01;19.60;99.90
20483;DHT22;10400;53.198;6.592;2022-07-29T08:38:27;19.60;99.90
20483;DHT22;10400;53.198;6.592;2022-07-29T08:40:53;19.60;99.90
20483;DHT22;10400;53.198;6.592;2022-07-29T08:43:18;19.60;99.90
20483;DHT22;10400;53.198;6.592;2022-07-29T08:45:50;19.70;99.90
20483;DHT22;10400;53.198;6.592;2022-07-29T08:48:19;19.50;99.90
20483;DHT22;10400;53.198;6.592;2022-07-29T08:50:46;19.40;99.90
20483;DHT22;10400;53.198;6.592;2022-07-29T08:53:14;19.30;99.90
20483;DHT22;10400;53.198;6.592;2022-07-29T08:55:46;19.30;99.90
20483;DHT22;10400;53.198;6.592;2022-07-29T08:58:13;19.50;99.90
20483;DHT22;10400;53.198;6.592;2022-07-29T09:00:42;19.50;99.90
20483;DHT22;10400;53.198;6.592;2022-07-29T09:03:09;19.50;99.90
20483;DHT22;10400;53.198;6.592;2022-07-29T09:05:40;19.70;99.90
20483;DHT22;10400;53.198;6.592;2022-07-29T09:08:07;19.70;99.90
20483;DHT22;10400;53.198;6.592;2022-07-29T09:10:35;19.70;99.90
20483;DHT22;10400;53.198;6.592;2022-07-29T09:13:00;19.70;99.90
20483;DHT22;10400;53.198;6.592;2022-07-29T09:15:26;19.80;99.90
20483;DHT22;10400;53.198;6.592;2022-07-29T09:17:52;19.60;99.90
20483;DHT22;10400;53.198;6.592;2022-07-29T09:20:20;19.70;99.90
20483;DHT22;10400;53.198;6.592;2022-07-29T09:22:47;19.80;99.90
20483;DHT22;10400;53.198;6.592;2022-07-29T09:28:13;19.70;99.90
20483;DHT22;10400;53.198;6.592;2022-07-29T09:30:56;19.60;99.90
20483;DHT22;10400;53.198;6.592;2022-07-29T09:33:24;19.50;99.90
20483;DHT22;10400;53.198;6.592;2022-07-29T09:36:14;19.50;99.90
20483;DHT22;10400;53.198;6.592;2022-07-29T09:38:39;19.60;99.90
20483;DHT22;10400;53.198;6.592;2022-07-29T09:41:05;19.60;99.90
20483;DHT22;10400;53.198;6.592;2022-07-29T09:43:33;19.60;99.90
20483;DHT22;10400;53.198;6.592;2022-07-29T09:46:12;19.70;99.90
20483;DHT22;10400;53.198;6.592;2022-07-29T09:48:38;19.60;99.90
20483;DHT22;10400;53.198;6.592;2022-07-29T09:51:04;19.70;99.90
20483;DHT22;10400;53.198;6.592;2022-07-29T09:53:32;19.90;99.90
20483;DHT22;10400;53.198;6.592;2022-07-29T09:55:58;20.10;99.90
20483;DHT22;10400;53.198;6.592;2022-07-29T09:58:24;20.00;99.90
20483;DHT22;10400;53.198;6.592;2022-07-29T10:00:51;20.10;99.90
20483;DHT22;10400;53.198;6.592;2022-07-29T10:03:18;20.10;99.90
20483;DHT22;10400;53.198;6.592;2022-07-29T10:05:44;20.20;99.90
20483;DHT22;10400;53.198;6.592;2022-07-29T10:08:11;20.20;99.90
20483;DHT22;10400;53.198;6.592;2022-07-29T10:10:41;20.00;99.90
20483;DHT22;10400;53.198;6.592;2022-07-29T10:13:14;19.90;99.90
20483;DHT22;10400;53.198;6.592;2022-07-29T10:15:44;20.10;99.90
20483;DHT22;10400;53.198;6.592;2022-07-29T10:18:12;20.00;99.90
20483;DHT22;10400;53.198;6.592;2022-07-29T10:20:38;19.70;99.90
20483;DHT22;10400;53.198;6.592;2022-07-29T10:23:05;19.80;99.90
20483;DHT22;10400;53.198;6.592;2022-07-29T10:25:31;19.80;99.90
20483;DHT22;10400;53.198;6.592;2022-07-29T10:27:57;20.00;99.90
20483;DHT22;10400;53.198;6.592;2022-07-29T10:30:24;20.10;99.90
20483;DHT22;10400;53.198;6.592;2022-07-29T10:36:02;20.40;99.90
20483;DHT22;10400;53.198;6.592;2022-07-29T10:41:53;20.40;99.90
20483;DHT22;10400;53.198;6.592;2022-07-29T10:44:22;20.30;99.90
20483;DHT22;10400;53.198;6.592;2022-07-29T10:46:49;20.50;99.90
20483;DHT22;10400;53.198;6.592;2022-07-29T10:49:20;20.70;99.90
20483;DHT22;10400;53.198;6.592;2022-07-29T10:52:01;20.90;99.90
20483;DHT22;10400;53.198;6.592;2022-07-29T10:54:46;20.70;99.90
20483;DHT22;10400;53.198;6.592;2022-07-29T10:59:45;20.80;99.90
20483;DHT22;10400;53.198;6.592;2022-07-29T11:05:07;20.20;99.90
20483;DHT22;10400;53.198;6.592;2022-07-29T11:07:35;20.40;99.90
20483;DHT22;10400;53.198;6.592;2022-07-29T11:15:10;20.50;99.90
20483;DHT22;10400;53.198;6.592;2022-07-29T11:20:41;20.60;99.90
20483;DHT22;10400;53.198;6.592;2022-07-29T11:23:34;20.60;99.90
20483;DHT22;10400;53.198;6.592;2022-07-29T11:31:41;20.90;99.90
20483;DHT22;10400;53.198;6.592;2022-07-29T11:39:30;21.50;99.90
20483;DHT22;10400;53.198;6.592;2022-07-29T11:47:30;21.90;99.90
20483;DHT22;10400;53.198;6.592;2022-07-29T11:49:57;22.00;99.90
20483;DHT22;10400;53.198;6.592;2022-07-29T11:52:24;22.10;99.90
20483;DHT22;10400;53.198;6.592;2022-07-29T11:54:57;22.10;99.90
20483;DHT22;10400;53.198;6.592;2022-07-29T11:57:24;22.20;99.90
20483;DHT22;10400;53.198;6.592;2022-07-29T11:59:50;22.30;99.90
20483;DHT22;10400;53.198;6.592;2022-07-29T12:02:16;22.40;99.90
20483;DHT22;10400;53.198;6.592;2022-07-29T12:04:56;22.40;99.90
20483;DHT22;10400;53.198;6.592;2022-07-29T12:07:29;22.60;99.90
20483;DHT22;10400;53.198;6.592;2022-07-29T12:09:56;22.80;99.90
20483;DHT22;10400;53.198;6.592;2022-07-29T12:12:22;22.80;99.90
20483;DHT22;10400;53.198;6.592;2022-07-29T12:14:48;22.90;99.90
20483;DHT22;10400;53.198;6.592;2022-07-29T12:17:33;22.70;99.90
20483;DHT22;10400;53.198;6.592;2022-07-29T12:20:03;22.80;99.90
20483;DHT22;10400;53.198;6.592;2022-07-29T12:25:08;23.20;99.90
20483;DHT22;10400;53.198;6.592;2022-07-29T12:27:35;23.40;99.90
20483;DHT22;10400;53.198;6.592;2022-07-29T12:30:07;23.50;99.90
20483;DHT22;10400;53.198;6.592;2022-07-29T12:32:37;23.60;99.90
20483;DHT22;10400;53.198;6.592;2022-07-29T12:35:14;23.60;99.90
20483;DHT22;10400;53.198;6.592;2022-07-29T12:37:42;23.70;99.90
20483;DHT22;10400;53.198;6.592;2022-07-29T12:40:09;23.70;99.90
20483;DHT22;10400;53.198;6.592;2022-07-29T12:42:35;23.80;99.90
20483;DHT22;10400;53.198;6.592;2022-07-29T12:45:02;23.80;99.90
20483;DHT22;10400;53.198;6.592;2022-07-29T12:47:28;23.70;99.90
20483;DHT22;10400;53.198;6.592;2022-07-29T12:50:11;23.70;99.90
20483;DHT22;10400;53.198;6.592;2022-07-29T12:52:38;23.70;99.90
20483;DHT22;10400;53.198;6.592;2022-07-29T12:55:04;23.80;99.90
20483;DHT22;10400;53.198;6.592;2022-07-29T12:57:30;23.90;99.90
20483;DHT22;10400;53.198;6.592;2022-07-29T13:00:07;24.00;99.90
20483;DHT22;10400;53.198;6.592;2022-07-29T13:02:35;24.10;99.90
20483;DHT22;10400;53.198;6.592;2022-07-29T13:05:01;24.20;99.90
20483;DHT22;10400;53.198;6.592;2022-07-29T13:07:30;24.40;99.90
20483;DHT22;10400;53.198;6.592;2022-07-29T13:13:03;24.90;99.90
20483;DHT22;10400;53.198;6.592;2022-07-29T13:15:29;24.80;99.90
20483;DHT22;10400;53.198;6.592;2022-07-29T13:17:55;25.10;99.90
20483;DHT22;10400;53.198;6.592;2022-07-29T13:20:24;25.40;99.90
20483;DHT22;10400;53.198;6.592;2022-07-29T13:22:50;25.60;99.90
20483;DHT22;10400;53.198;6.592;2022-07-29T13:25:24;25.70;99.90
20483;DHT22;10400;53.198;6.592;2022-07-29T13:27:50;25.70;99.90
20483;DHT22;10400;53.198;6.592;2022-07-29T13:30:15;25.70;99.90
20483;DHT22;10400;53.198;6.592;2022-07-29T13:32:41;25.70;99.90
20483;DHT22;10400;53.198;6.592;2022-07-29T13:35:08;25.90;99.90
20483;DHT22;10400;53.198;6.592;2022-07-29T13:37:35;25.90;99.90
20483;DHT22;10400;53.198;6.592;2022-07-29T13:40:04;25.90;99.90
20483;DHT22;10400;53.198;6.592;2022-07-29T13:42:31;26.10;99.90
20483;DHT22;10400;53.198;6.592;2022-07-29T13:44:57;26.20;99.90
20483;DHT22;10400;53.198;6.592;2022-07-29T13:47:23;26.30;99.90
20483;DHT22;10400;53.198;6.592;2022-07-29T13:49:49;26.10;99.90
20483;DHT22;10400;53.198;6.592;2022-07-29T13:52:15;26.00;99.90
20483;DHT22;10400;53.198;6.592;2022-07-29T13:54:41;26.10;99.90
20483;DHT22;10400;53.198;6.592;2022-07-29T13:57:07;26.10;99.90
20483;DHT22;10400;53.198;6.592;2022-07-29T13:59:33;26.30;99.90
20483;DHT22;10400;53.198;6.592;2022-07-29T14:01:59;26.40;99.90
20483;DHT22;10400;53.198;6.592;2022-07-29T14:04:25;26.40;99.90
20483;DHT22;10400;53.198;6.592;2022-07-29T14:06:51;26.40;99.90
20483;DHT22;10400;53.198;6.592;2022-07-29T14:09:16;26.50;99.90
20483;DHT22;10400;53.198;6.592;2022-07-29T14:11:42;26.60;99.90
20483;DHT22;10400;53.198;6.592;2022-07-29T14:14:08;26.50;99.90
20483;DHT22;10400;53.198;6.592;2022-07-29T14:16:35;26.50;99.90
20483;DHT22;10400;53.198;6.592;2022-07-29T14:19:01;26.60;99.90
20483;DHT22;10400;53.198;6.592;2022-07-29T14:21:27;26.50;99.90
20483;DHT22;10400;53.198;6.592;2022-07-29T14:23:52;26.50;99.90
20483;DHT22;10400;53.198;6.592;2022-07-29T14:26:20;26.60;99.90
20483;DHT22;10400;53.198;6.592;2022-07-29T14:28:47;26.60;99.90
20483;DHT22;10400;53.198;6.592;2022-07-29T14:31:13;26.60;99.90
20483;DHT22;10400;53.198;6.592;2022-07-29T14:33:38;26.60;99.90
20483;DHT22;10400;53.198;6.592;2022-07-29T14:36:04;26.60;99.90
20483;DHT22;10400;53.198;6.592;2022-07-29T14:38:30;26.60;99.90
20483;DHT22;10400;53.198;6.592;2022-07-29T14:40:55;26.70;99.90
20483;DHT22;10400;53.198;6.592;2022-07-29T14:43:21;26.60;99.90
20483;DHT22;10400;53.198;6.592;2022-07-29T14:45:47;26.80;99.90
20483;DHT22;10400;53.198;6.592;2022-07-29T14:48:12;27.00;99.90
20483;DHT22;10400;53.198;6.592;2022-07-29T14:50:38;27.00;99.90
20483;DHT22;10400;53.198;6.592;2022-07-29T14:53:04;27.10;99.90
20483;DHT22;10400;53.198;6.592;2022-07-29T14:55:29;27.10;99.90
20483;DHT22;10400;53.198;6.592;2022-07-29T14:57:55;27.20;99.90
20483;DHT22;10400;53.198;6.592;2022-07-29T15:00:21;27.20;99.90
20483;DHT22;10400;53.198;6.592;2022-07-29T15:02:48;27.00;99.90
20483;DHT22;10400;53.198;6.592;2022-07-29T15:05:14;27.00;99.90
20483;DHT22;10400;53.198;6.592;2022-07-29T15:07:40;26.80;99.90
20483;DHT22;10400;53.198;6.592;2022-07-29T15:10:06;26.80;99.90
20483;DHT22;10400;53.198;6.592;2022-07-29T15:12:32;26.40;99.90
20483;DHT22;10400;53.198;6.592;2022-07-29T15:14:57;26.50;99.90
20483;DHT22;10400;53.198;6.592;2022-07-29T15:17:23;26.50;99.90
20483;DHT22;10400;53.198;6.592;2022-07-29T15:19:49;26.50;99.90
20483;DHT22;10400;53.198;6.592;2022-07-29T15:22:15;26.40;99.90
20483;DHT22;10400;53.198;6.592;2022-07-29T15:24:40;26.50;99.90
20483;DHT22;10400;53.198;6.592;2022-07-29T15:27:06;26.50;99.90
20483;DHT22;10400;53.198;6.592;2022-07-29T15:29:31;26.50;99.90
20483;DHT22;10400;53.198;6.592;2022-07-29T15:31:58;26.40;99.90
20483;DHT22;10400;53.198;6.592;2022-07-29T15:34:23;26.50;99.90
20483;DHT22;10400;53.198;6.592;2022-07-29T15:36:52;26.50;99.90
20483;DHT22;10400;53.198;6.592;2022-07-29T15:39:18;26.50;99.90
20483;DHT22;10400;53.198;6.592;2022-07-29T15:41:44;26.50;99.90
20483;DHT22;10400;53.198;6.592;2022-07-29T15:44:09;26.60;99.90
20483;DHT22;10400;53.198;6.592;2022-07-29T15:46:35;26.70;99.90
20483;DHT22;10400;53.198;6.592;2022-07-29T15:49:19;26.90;99.90
20483;DHT22;10400;53.198;6.592;2022-07-29T15:51:45;26.90;99.90
20483;DHT22;10400;53.198;6.592;2022-07-29T15:54:10;26.90;99.90
20483;DHT22;10400;53.198;6.592;2022-07-29T15:56:36;26.80;99.90
20483;DHT22;10400;53.198;6.592;2022-07-29T15:59:01;26.90;99.90
20483;DHT22;10400;53.198;6.592;2022-07-29T16:01:28;27.10;99.90
20483;DHT22;10400;53.198;6.592;2022-07-29T16:03:53;27.20;99.90
20483;DHT22;10400;53.198;6.592;2022-07-29T16:06:19;27.20;99.90
20483;DHT22;10400;53.198;6.592;2022-07-29T16:08:45;27.20;99.90
20483;DHT22;10400;53.198;6.592;2022-07-29T16:11:10;27.30;99.90
20483;DHT22;10400;53.198;6.592;2022-07-29T16:13:36;27.20;99.90
20483;DHT22;10400;53.198;6.592;2022-07-29T16:16:02;27.10;99.90
20483;DHT22;10400;53.198;6.592;2022-07-29T16:18:27;27.00;99.90
20483;DHT22;10400;53.198;6.592;2022-07-29T16:20:53;26.90;99.90
20483;DHT22;10400;53.198;6.592;2022-07-29T16:23:19;26.90;99.90
20483;DHT22;10400;53.198;6.592;2022-07-29T16:25:44;26.70;99.90
20483;DHT22;10400;53.198;6.592;2022-07-29T16:28:10;26.60;99.90
20483;DHT22;10400;53.198;6.592;2022-07-29T16:30:36;26.70;99.90
20483;DHT22;10400;53.198;6.592;2022-07-29T16:33:02;26.70;99.90
20483;DHT22;10400;53.198;6.592;2022-07-29T16:35:28;26.30;99.90
20483;DHT22;10400;53.198;6.592;2022-07-29T16:37:57;26.30;99.90